Time;durP1;ratioP1;P1;durP2;ratioP2;P2;SDS_P1;SDS_P2;PMS_P1;PMS_P2;Temp;Humidity;BMP_temperature;BMP_pressure;BME280_temperature;BME280_humidity;BME280_pressure;Samples;Min_cycle;Max_cycle;Signal;HPM_P1;HPM_P2
2022/01/16 00:00:08;;;;;;;18.30;10.73;;;4.10;99.90;;;;;;5069764;22;20605;-83
2022/01/16 00:05:18;;;;;;;16.17;10.70;;;4.10;99.90;;;;;;5062769;28;21007;-84
2022/01/16 00:07:43;;;;;;;18.87;10.97;;;4.10;99.90;;;;;;5035145;28;20475;-84
2022/01/16 00:10:10;;;;;;;16.10;10.20;;;4.10;99.90;;;;;;5035182;28;20700;-84
2022/01/16 00:12:36;;;;;;;19.43;10.33;;;4.10;99.90;;;;;;5035162;28;20185;-83
2022/01/16 00:15:03;;;;;;;19.47;11.47;;;4.10;99.90;;;;;;5034858;28;20518;-83
2022/01/16 00:17:34;;;;;;;18.73;11.60;;;4.10;99.90;;;;;;5034735;28;20929;-83
2022/01/16 00:20:00;;;;;;;16.30;10.90;;;4.20;99.90;;;;;;5034628;28;20469;-83
2022/01/16 00:22:29;;;;;;;14.83;10.40;;;4.20;99.90;;;;;;5034529;28;20423;-83
2022/01/16 00:24:55;;;;;;;16.83;11.53;;;4.10;99.90;;;;;;5034493;28;20230;-83
2022/01/16 00:27:21;;;;;;;16.57;11.10;;;4.10;99.90;;;;;;5034375;28;20442;-83
2022/01/16 00:29:46;;;;;;;19.10;11.03;;;4.10;99.90;;;;;;5034707;28;20211;-83
2022/01/16 00:32:12;;;;;;;14.80;10.47;;;4.10;99.90;;;;;;5034595;28;20271;-83
2022/01/16 00:34:38;;;;;;;15.30;10.73;;;4.10;99.90;;;;;;5034267;28;20201;-83
2022/01/16 00:37:04;;;;;;;20.50;12.30;;;4.10;99.90;;;;;;5034284;28;20200;-83
2022/01/16 00:39:30;;;;;;;20.87;11.70;;;4.10;99.90;;;;;;5034542;28;20202;-83
2022/01/16 00:41:55;;;;;;;14.37;10.23;;;4.10;99.90;;;;;;5034289;28;20180;-83
2022/01/16 00:44:21;;;;;;;20.43;12.27;;;4.10;99.90;;;;;;5034328;28;20430;-83
2022/01/16 00:46:47;;;;;;;18.27;11.43;;;4.20;99.90;;;;;;5051802;28;20200;-83
2022/01/16 00:49:13;;;;;;;18.37;11.20;;;4.10;99.90;;;;;;5034357;28;20203;-84
2022/01/16 00:51:38;;;;;;;20.33;11.27;;;4.20;99.90;;;;;;5034102;28;21006;-83
2022/01/16 00:54:05;;;;;;;16.47;11.17;;;4.20;99.90;;;;;;5034083;28;20201;-83
2022/01/16 00:56:30;;;;;;;20.40;11.67;;;4.20;99.90;;;;;;5033847;28;20190;-83
2022/01/16 00:58:56;;;;;;;18.07;10.80;;;4.20;99.90;;;;;;5034033;28;21011;-83
2022/01/16 01:01:22;;;;;;;19.27;11.83;;;4.20;99.90;;;;;;5034230;28;20560;-83
2022/01/16 01:03:48;;;;;;;16.53;11.43;;;4.20;99.90;;;;;;5033935;28;20179;-83
2022/01/16 01:06:13;;;;;;;18.27;12.10;;;4.20;99.90;;;;;;5034262;28;20429;-83
2022/01/16 01:08:40;;;;;;;17.10;11.60;;;4.30;99.90;;;;;;5033829;28;20647;-84
2022/01/16 01:11:11;;;;;;;18.47;11.53;;;4.30;99.90;;;;;;5034045;28;20708;-84
2022/01/16 01:14:07;;;;;;;15.77;9.60;;;4.30;99.90;;;;;;5034587;28;20468;-83
2022/01/16 01:16:55;;;;;;;21.63;11.50;;;4.20;99.90;;;;;;5037843;28;20407;-83
2022/01/16 01:19:28;;;;;;;16.50;9.93;;;4.20;99.90;;;;;;5038591;28;20438;-82
2022/01/16 01:21:55;;;;;;;21.80;11.30;;;4.10;99.90;;;;;;5038095;28;20410;-83
2022/01/16 01:24:23;;;;;;;18.63;11.23;;;4.10;99.90;;;;;;5037934;28;20421;-84
2022/01/16 01:27:03;;;;;;;18.53;10.50;;;4.00;99.90;;;;;;5037635;28;20446;-84
2022/01/16 01:29:29;;;;;;;18.47;10.80;;;4.10;99.90;;;;;;5037967;28;20422;-83
2022/01/16 01:31:56;;;;;;;23.17;12.90;;;4.00;99.90;;;;;;5037904;28;20504;-83
2022/01/16 01:34:22;;;;;;;17.93;11.33;;;4.10;99.90;;;;;;5037813;28;20881;-83
2022/01/16 01:36:49;;;;;;;17.73;11.00;;;4.10;99.90;;;;;;5037526;28;20472;-82
2022/01/16 01:39:16;;;;;;;18.97;11.37;;;4.10;99.90;;;;;;5041597;28;20970;-85
2022/01/16 01:41:43;;;;;;;25.97;12.53;;;4.10;99.90;;;;;;5044640;28;20406;-84
2022/01/16 01:52:21;;;;;;;20.10;11.33;;;4.10;99.90;;;;;;5063482;28;20393;-84
2022/01/16 01:54:47;;;;;;;18.67;12.57;;;4.10;99.90;;;;;;5045170;28;20447;-85
2022/01/16 01:57:13;;;;;;;20.40;11.40;;;4.10;99.90;;;;;;5044900;28;20200;-84
2022/01/16 01:59:39;;;;;;;18.67;12.13;;;4.10;99.90;;;;;;5043916;28;20226;-85
2022/01/16 02:02:06;;;;;;;19.93;11.10;;;4.10;99.90;;;;;;5044555;28;20184;-84
2022/01/16 02:04:32;;;;;;;16.63;11.10;;;4.20;99.90;;;;;;5045201;28;20422;-85
2022/01/16 02:06:58;;;;;;;18.50;11.60;;;4.30;99.90;;;;;;5044272;28;20821;-85
2022/01/16 02:09:25;;;;;;;20.47;11.73;;;4.30;99.90;;;;;;5043976;28;20571;-84
2022/01/16 02:11:52;;;;;;;17.30;9.97;;;4.30;99.90;;;;;;5044213;28;20424;-85
2022/01/16 02:28:15;;;;;;;15.77;10.43;;;4.30;99.90;;;;;;5061313;28;20836;-85
2022/01/16 02:35:45;;;;;;;16.13;10.50;;;4.20;99.90;;;;;;5034855;28;20501;-83
2022/01/16 02:38:12;;;;;;;17.97;11.37;;;4.20;99.90;;;;;;5032982;28;20561;-83
2022/01/16 02:40:43;;;;;;;17.10;9.97;;;4.30;99.90;;;;;;5033129;28;20806;-83
2022/01/16 02:43:09;;;;;;;16.60;10.07;;;4.30;99.90;;;;;;5033118;28;20500;-83
2022/01/16 02:45:37;;;;;;;18.53;9.93;;;4.20;99.90;;;;;;5034314;28;20864;-83
2022/01/16 02:48:06;;;;;;;15.60;9.53;;;4.20;99.90;;;;;;5031350;28;20212;-83
2022/01/16 02:50:34;;;;;;;16.30;9.80;;;4.20;99.90;;;;;;5036471;28;20425;-83
2022/01/16 02:52:59;;;;;;;23.07;10.50;;;4.20;99.90;;;;;;5036208;28;20441;-83
2022/01/16 02:55:26;;;;;;;22.97;11.30;;;4.20;99.90;;;;;;5035867;28;20471;-83
2022/01/16 02:57:53;;;;;;;26.00;12.47;;;4.20;99.90;;;;;;5036175;28;20199;-83
2022/01/16 03:00:22;;;;;;;18.27;10.70;;;4.30;99.90;;;;;;5036031;28;20444;-83
2022/01/16 03:02:49;;;;;;;20.60;12.33;;;4.20;99.90;;;;;;5036231;28;20524;-84
2022/01/16 03:05:15;;;;;;;18.10;11.53;;;4.20;99.90;;;;;;5036262;28;20469;-83
2022/01/16 03:07:42;;;;;;;22.37;12.23;;;4.20;99.90;;;;;;5036309;28;20445;-84
2022/01/16 03:12:48;;;;;;;19.53;11.67;;;4.20;99.90;;;;;;5054080;28;20885;-84
2022/01/16 03:15:15;;;;;;;18.20;10.50;;;4.30;99.90;;;;;;5036072;28;20466;-83
2022/01/16 03:23:18;;;;;;;17.53;10.13;;;4.30;99.90;;;;;;5054369;28;20439;-84
2022/01/16 03:25:44;;;;;;;18.13;11.17;;;4.40;99.90;;;;;;5036120;28;20480;-84
2022/01/16 03:28:10;;;;;;;18.33;11.27;;;4.40;99.90;;;;;;5035831;28;20975;-84
2022/01/16 03:30:36;;;;;;;19.23;11.87;;;4.40;99.90;;;;;;5035911;28;20415;-83
2022/01/16 03:33:02;;;;;;;16.60;10.13;;;4.50;99.90;;;;;;5035771;28;20184;-83
2022/01/16 03:35:28;;;;;;;18.33;11.07;;;4.50;99.90;;;;;;5035788;28;20515;-83
2022/01/16 03:37:53;;;;;;;19.77;12.03;;;4.50;99.90;;;;;;5034873;28;20258;-83
2022/01/16 03:40:21;;;;;;;20.73;12.50;;;4.50;99.90;;;;;;5035909;28;20180;-83
2022/01/16 03:42:48;;;;;;;18.50;13.40;;;4.50;99.90;;;;;;5035506;28;20177;-84
2022/01/16 03:45:14;;;;;;;24.87;13.77;;;4.40;99.90;;;;;;5035593;28;20521;-84
2022/01/16 03:47:40;;;;;;;21.97;13.70;;;4.40;99.90;;;;;;5035416;28;20444;-84
2022/01/16 03:50:06;;;;;;;25.37;15.40;;;4.50;99.90;;;;;;5035772;28;21143;-84
2022/01/16 03:52:32;;;;;;;31.30;14.47;;;4.40;99.90;;;;;;5035598;28;20818;-84
2022/01/16 03:54:58;;;;;;;24.47;14.87;;;4.40;99.90;;;;;;5035622;28;20459;-84
2022/01/16 03:57:24;;;;;;;26.10;15.33;;;4.40;99.90;;;;;;5035416;28;20464;-84
2022/01/16 03:59:50;;;;;;;23.57;15.40;;;4.40;99.90;;;;;;5035401;28;20201;-83
2022/01/16 04:02:16;;;;;;;27.67;14.63;;;4.40;99.90;;;;;;5035459;28;20185;-84
2022/01/16 04:04:42;;;;;;;26.73;15.93;;;4.50;99.90;;;;;;5035512;28;20188;-83
2022/01/16 04:07:10;;;;;;;30.23;17.83;;;4.50;99.90;;;;;;5035284;28;20441;-84
2022/01/16 04:09:37;;;;;;;23.63;15.53;;;4.50;99.90;;;;;;5035518;28;20518;-84
2022/01/16 04:12:03;;;;;;;24.40;15.47;;;4.40;99.90;;;;;;5035450;28;20802;-84
2022/01/16 04:17:17;;;;;;;30.67;16.93;;;4.50;99.90;;;;;;5053338;28;20529;-83
2022/01/16 04:19:43;;;;;;;27.30;15.70;;;4.50;99.90;;;;;;5038490;28;20468;-84
2022/01/16 04:22:09;;;;;;;25.00;16.83;;;4.60;99.90;;;;;;5038176;28;20430;-85
2022/01/16 04:24:36;;;;;;;24.17;16.23;;;4.60;99.90;;;;;;5037818;28;20452;-85
2022/01/16 04:27:02;;;;;;;28.03;18.07;;;4.60;99.90;;;;;;5037070;28;20441;-85
2022/01/16 04:29:28;;;;;;;29.03;17.97;;;4.70;99.90;;;;;;5037254;28;20414;-84
2022/01/16 04:31:53;;;;;;;30.87;17.40;;;4.70;99.90;;;;;;5037363;28;20786;-84
2022/01/16 04:34:19;;;;;;;28.07;16.53;;;4.80;99.90;;;;;;5037848;28;20205;-85
2022/01/16 04:36:45;;;;;;;38.73;18.90;;;4.80;99.90;;;;;;5037463;28;20208;-85
2022/01/16 04:39:17;;;;;;;34.30;17.83;;;4.80;99.90;;;;;;5037162;28;20190;-84
2022/01/16 04:44:28;;;;;;;32.20;16.83;;;4.80;99.90;;;;;;5055381;28;20776;-85
2022/01/16 04:46:54;;;;;;;27.00;16.30;;;4.80;99.90;;;;;;5036632;28;20446;-85
2022/01/16 04:49:20;;;;;;;28.67;16.50;;;4.80;99.90;;;;;;5036039;28;20182;-84
2022/01/16 04:51:46;;;;;;;28.90;15.17;;;4.80;99.90;;;;;;5034552;28;20552;-83
2022/01/16 04:54:12;;;;;;;26.90;16.30;;;4.90;99.90;;;;;;5034077;28;20501;-83
2022/01/16 04:56:38;;;;;;;28.77;16.40;;;4.90;99.90;;;;;;5051761;28;20408;-84
2022/01/16 04:59:04;;;;;;;29.93;17.50;;;4.80;99.90;;;;;;5033797;28;20272;-83
2022/01/16 05:01:30;;;;;;;26.40;15.10;;;4.90;99.90;;;;;;5034066;28;20260;-84
2022/01/16 05:03:55;;;;;;;27.27;17.40;;;4.90;99.90;;;;;;5034031;28;20964;-83
2022/01/16 05:06:21;;;;;;;20.97;13.30;;;4.90;99.90;;;;;;5033625;28;20184;-83
2022/01/16 05:08:47;;;;;;;19.93;12.67;;;4.90;99.90;;;;;;5033832;28;20268;-84
2022/01/16 05:11:15;;;;;;;24.70;14.13;;;4.80;99.90;;;;;;5033936;28;20907;-83
2022/01/16 05:18:53;;;;;;;24.67;15.47;;;4.80;99.90;;;;;;5052096;28;20955;-83
2022/01/16 05:21:20;;;;;;;20.10;13.37;;;4.80;99.90;;;;;;5033711;28;20421;-84
2022/01/16 05:23:46;;;;;;;19.10;12.30;;;4.80;99.90;;;;;;5033874;28;20427;-83
2022/01/16 05:26:13;;;;;;;26.50;15.17;;;4.80;99.90;;;;;;5033837;28;20424;-83
2022/01/16 05:28:39;;;;;;;25.50;13.87;;;4.80;99.90;;;;;;5033702;28;20447;-83
2022/01/16 05:31:06;;;;;;;20.97;13.63;;;4.90;99.90;;;;;;5033610;28;20915;-83
2022/01/16 05:33:32;;;;;;;29.73;14.97;;;4.80;99.90;;;;;;5033743;28;20278;-82
2022/01/16 05:35:57;;;;;;;25.23;14.30;;;4.90;99.90;;;;;;5033480;28;20474;-83
2022/01/16 05:38:23;;;;;;;29.40;16.37;;;4.90;99.90;;;;;;5033498;28;20440;-84
2022/01/16 05:40:49;;;;;;;28.17;15.63;;;4.90;99.90;;;;;;5033597;28;20183;-83
2022/01/16 05:43:15;;;;;;;32.60;17.23;;;4.90;99.90;;;;;;5033606;28;20216;-83
2022/01/16 05:45:41;;;;;;;25.70;15.83;;;4.90;99.90;;;;;;5033864;28;20182;-83
2022/01/16 05:48:07;;;;;;;27.23;15.77;;;5.00;99.90;;;;;;5033311;28;20575;-83
2022/01/16 05:50:33;;;;;;;22.30;13.50;;;5.00;99.90;;;;;;5033656;28;20491;-84
2022/01/16 05:53:00;;;;;;;23.87;13.77;;;5.00;99.90;;;;;;5033616;28;20424;-83
2022/01/16 05:55:36;;;;;;;27.70;17.23;;;5.00;99.90;;;;;;5033415;28;20455;-83
2022/01/16 05:58:06;;;;;;;31.47;16.33;;;5.00;99.90;;;;;;5033344;28;20489;-84
2022/01/16 06:03:10;;;;;;;24.80;14.77;;;4.90;99.90;;;;;;5072713;28;20489;-85
2022/01/16 06:05:36;;;;;;;26.63;15.47;;;4.80;99.90;;;;;;5054527;28;20423;-84
2022/01/16 06:08:07;;;;;;;29.77;16.13;;;4.80;99.90;;;;;;5037694;28;20182;-85
2022/01/16 06:10:33;;;;;;;34.90;17.60;;;4.80;99.90;;;;;;5057958;28;20169;-85
2022/01/16 06:12:59;;;;;;;28.63;16.90;;;4.70;99.90;;;;;;5037743;28;20435;-86
2022/01/16 06:15:24;;;;;;;30.83;18.13;;;4.60;99.90;;;;;;5037566;28;20258;-86
2022/01/16 06:17:51;;;;;;;33.60;16.30;;;4.60;99.90;;;;;;5037669;28;20191;-85
2022/01/16 06:20:17;;;;;;;31.00;17.27;;;4.60;99.90;;;;;;5037298;28;20252;-85
2022/01/16 06:22:43;;;;;;;33.77;18.53;;;4.60;99.90;;;;;;5037766;28;20450;-84
2022/01/16 06:25:10;;;;;;;37.40;18.60;;;4.60;99.90;;;;;;5037413;28;20431;-85
2022/01/16 06:27:36;;;;;;;28.60;15.63;;;4.50;99.90;;;;;;5037609;28;20557;-85
2022/01/16 06:30:05;;;;;;;29.97;16.73;;;4.50;99.90;;;;;;5037708;28;20422;-86
2022/01/16 06:32:30;;;;;;;33.50;18.93;;;4.40;99.90;;;;;;5037502;28;20696;-84
2022/01/16 06:34:56;;;;;;;31.23;18.60;;;4.40;99.90;;;;;;5055363;28;20470;-84
2022/01/16 06:37:21;;;;;;;32.60;17.53;;;4.30;99.90;;;;;;5037356;28;20185;-85
2022/01/16 06:39:47;;;;;;;32.53;17.90;;;4.30;99.90;;;;;;5038540;28;20275;-87
2022/01/16 06:42:12;;;;;;;39.17;20.97;;;4.30;99.90;;;;;;5037912;28;20200;-84
2022/01/16 06:44:38;;;;;;;35.53;19.80;;;4.30;99.90;;;;;;5037478;28;20194;-85
2022/01/16 06:47:04;;;;;;;38.30;19.17;;;4.30;99.90;;;;;;5037469;28;20211;-86
2022/01/16 06:49:29;;;;;;;28.87;17.17;;;4.30;99.90;;;;;;5055055;28;20673;-85
2022/01/16 06:51:55;;;;;;;34.27;20.53;;;4.40;99.90;;;;;;5036752;28;20439;-85
2022/01/16 06:54:21;;;;;;;37.00;19.93;;;4.40;99.90;;;;;;5037126;28;20257;-86
2022/01/16 06:56:46;;;;;;;34.60;19.47;;;4.40;99.90;;;;;;5036867;28;20499;-86
2022/01/16 06:59:12;;;;;;;33.77;20.57;;;4.50;99.90;;;;;;5037004;28;20176;-85
2022/01/16 07:01:37;;;;;;;34.03;22.43;;;4.50;99.90;;;;;;5036784;28;20212;-84
2022/01/16 07:04:03;;;;;;;40.93;22.00;;;4.50;99.90;;;;;;5054455;28;20722;-86
2022/01/16 07:06:29;;;;;;;35.20;20.33;;;4.50;99.90;;;;;;5054809;28;20349;-86
2022/01/16 07:08:54;;;;;;;34.83;20.53;;;4.50;99.90;;;;;;5031151;28;20196;-86
2022/01/16 07:11:20;;;;;;;35.30;19.27;;;4.50;99.90;;;;;;5036055;28;20208;-84
2022/01/16 07:13:45;;;;;;;40.00;19.53;;;4.50;99.90;;;;;;5036865;28;20190;-84
2022/01/16 07:16:11;;;;;;;38.50;22.50;;;4.60;99.90;;;;;;5037029;28;20275;-86
2022/01/16 07:18:36;;;;;;;37.80;21.13;;;4.60;99.90;;;;;;5036706;28;20549;-86
2022/01/16 07:21:02;;;;;;;40.07;23.10;;;4.70;99.90;;;;;;5037014;28;20200;-85
2022/01/16 07:23:28;;;;;;;42.17;20.53;;;4.80;99.90;;;;;;5037350;28;20561;-86
2022/01/16 07:25:53;;;;;;;40.67;22.97;;;4.80;99.90;;;;;;5037187;28;20189;-86
2022/01/16 07:28:20;;;;;;;41.23;21.40;;;4.80;99.90;;;;;;5054494;28;20194;-86
2022/01/16 07:30:47;;;;;;;38.53;20.80;;;4.90;99.90;;;;;;5036912;28;20192;-85
2022/01/16 07:33:12;;;;;;;39.40;21.80;;;4.90;99.90;;;;;;5054870;28;20416;-85
2022/01/16 07:35:39;;;;;;;40.00;21.63;;;4.90;99.90;;;;;;5036615;28;21123;-85
2022/01/16 07:38:06;;;;;;;43.30;24.73;;;4.90;99.90;;;;;;5036556;28;20645;-84
2022/01/16 07:40:33;;;;;;;51.80;24.30;;;5.00;99.90;;;;;;5054390;28;20482;-86
2022/01/16 07:42:59;;;;;;;41.67;22.90;;;5.00;99.90;;;;;;5036483;28;20444;-85
2022/01/16 07:45:25;;;;;;;36.63;22.10;;;5.00;99.90;;;;;;5036204;28;20432;-85
2022/01/16 07:47:51;;;;;;;35.83;22.23;;;5.00;99.90;;;;;;5036154;28;20465;-86
2022/01/16 07:50:17;;;;;;;31.40;19.50;;;5.10;99.90;;;;;;5036229;28;20511;-85
2022/01/16 07:52:43;;;;;;;39.77;23.10;;;5.10;99.90;;;;;;5054240;28;20225;-84
2022/01/16 07:55:09;;;;;;;36.60;22.10;;;5.10;99.90;;;;;;5036366;28;20468;-85
2022/01/16 07:57:35;;;;;;;42.07;21.87;;;5.00;99.90;;;;;;5035858;28;20445;-85
2022/01/16 08:00:04;;;;;;;40.37;24.67;;;5.10;99.90;;;;;;5036325;28;20436;-84
2022/01/16 08:02:29;;;;;;;46.77;23.70;;;5.00;99.90;;;;;;5035702;28;20990;-85
2022/01/16 08:04:55;;;;;;;38.37;24.80;;;5.00;99.90;;;;;;5036074;28;20445;-85
2022/01/16 08:07:20;;;;;;;42.80;23.13;;;5.10;99.90;;;;;;5035970;28;20212;-86
2022/01/16 08:09:46;;;;;;;38.20;24.07;;;5.00;99.90;;;;;;5035839;28;20175;-85
2022/01/16 08:12:12;;;;;;;40.30;22.53;;;4.90;99.90;;;;;;5035803;28;20209;-85
2022/01/16 08:14:38;;;;;;;44.77;25.10;;;4.90;99.90;;;;;;5035651;28;20263;-85
2022/01/16 08:17:04;;;;;;;41.27;23.50;;;4.90;99.90;;;;;;5053150;28;20408;-86
2022/01/16 08:19:30;;;;;;;39.57;22.57;;;5.00;99.90;;;;;;5035583;28;20181;-86
2022/01/16 08:21:56;;;;;;;42.50;23.03;;;5.00;99.90;;;;;;5053334;28;20439;-85
2022/01/16 08:24:23;;;;;;;41.00;22.13;;;5.10;99.90;;;;;;5035328;28;20797;-86
2022/01/16 08:26:49;;;;;;;38.90;23.20;;;5.10;99.90;;;;;;5053128;28;20224;-86
2022/01/16 08:29:15;;;;;;;38.33;22.40;;;5.10;99.90;;;;;;5035534;28;20424;-85
2022/01/16 08:31:40;;;;;;;39.40;21.47;;;5.00;99.90;;;;;;5053480;28;21017;-86
2022/01/16 08:34:06;;;;;;;43.03;24.67;;;5.00;99.90;;;;;;5035297;28;20457;-85
2022/01/16 08:36:32;;;;;;;40.43;22.73;;;4.90;99.90;;;;;;5035336;28;20561;-84
2022/01/16 08:38:58;;;;;;;47.37;22.30;;;4.90;99.90;;;;;;5053418;28;20224;-86
2022/01/16 08:41:24;;;;;;;38.80;25.20;;;5.00;99.90;;;;;;5035445;28;20265;-85
2022/01/16 08:43:51;;;;;;;38.13;21.77;;;4.90;99.90;;;;;;5035336;28;20532;-84
2022/01/16 08:46:17;;;;;;;39.13;21.80;;;5.00;99.90;;;;;;5053430;28;20781;-87
2022/01/16 08:48:43;;;;;;;40.63;23.07;;;5.00;99.90;;;;;;5035221;28;20422;-86
2022/01/16 08:51:08;;;;;;;44.43;24.87;;;5.00;99.90;;;;;;5035597;28;20193;-85
2022/01/16 08:53:34;;;;;;;45.20;25.10;;;5.10;99.90;;;;;;5035731;28;20174;-86
2022/01/16 08:56:00;;;;;;;39.27;23.67;;;5.10;99.90;;;;;;5035582;28;20302;-86
2022/01/16 08:58:26;;;;;;;37.90;23.30;;;5.10;99.90;;;;;;5035931;28;20265;-87
2022/01/16 09:00:52;;;;;;;37.33;22.17;;;5.20;99.90;;;;;;5035284;28;20843;-86
2022/01/16 09:03:22;;;;;;;41.10;24.37;;;5.20;99.90;;;;;;5036679;28;20425;-86
2022/01/16 09:05:49;;;;;;;39.80;22.17;;;5.30;99.90;;;;;;5036393;28;20183;-85
2022/01/16 09:08:15;;;;;;;41.00;21.60;;;5.30;99.90;;;;;;5052772;28;20469;-85
2022/01/16 09:10:41;;;;;;;37.83;21.50;;;5.40;99.90;;;;;;5035414;28;20446;-84
2022/01/16 09:13:12;;;;;;;39.30;20.87;;;5.40;99.90;;;;;;5035770;28;20445;-85
2022/01/16 09:15:38;;;;;;;32.57;20.00;;;5.40;99.90;;;;;;5052932;28;20562;-86
2022/01/16 09:18:05;;;;;;;37.60;21.13;;;5.30;99.90;;;;;;5052925;28;20424;-86
2022/01/16 09:20:31;;;;;;;31.63;20.50;;;5.30;99.90;;;;;;5035458;28;20513;-87
2022/01/16 09:22:56;;;;;;;38.17;20.27;;;5.30;99.90;;;;;;5035357;28;20460;-85
2022/01/16 09:25:22;;;;;;;37.30;23.00;;;5.20;99.90;;;;;;5035787;28;20185;-87
2022/01/16 09:27:48;;;;;;;35.40;23.33;;;5.40;99.90;;;;;;5035263;28;20182;-85
2022/01/16 09:30:15;;;;;;;37.33;22.40;;;5.40;99.90;;;;;;5035316;28;20419;-87
2022/01/16 09:32:41;;;;;;;36.97;20.50;;;5.40;99.90;;;;;;5035142;28;20534;-85
2022/01/16 09:35:08;;;;;;;35.03;19.13;;;5.50;99.90;;;;;;5035949;28;20553;-85
2022/01/16 09:37:33;;;;;;;34.30;20.70;;;5.60;99.90;;;;;;5038740;28;20178;-84
2022/01/16 09:40:00;;;;;;;31.77;18.70;;;5.60;99.90;;;;;;5039362;28;20552;-86
2022/01/16 09:42:26;;;;;;;31.33;20.37;;;5.70;99.90;;;;;;5038607;28;20209;-84
2022/01/16 09:44:52;;;;;;;34.40;19.80;;;5.70;99.90;;;;;;5038776;28;20845;-84
2022/01/16 09:47:18;;;;;;;38.67;20.53;;;5.80;99.90;;;;;;5038310;28;20432;-85
2022/01/16 09:49:44;;;;;;;37.47;19.30;;;5.80;99.90;;;;;;5037736;28;20889;-83
2022/01/16 09:52:10;;;;;;;34.33;19.30;;;5.80;99.90;;;;;;5055845;28;20483;-85
2022/01/16 09:54:37;;;;;;;32.03;18.00;;;5.80;99.90;;;;;;5037948;28;20504;-83
2022/01/16 09:57:03;;;;;;;33.63;22.70;;;5.80;99.90;;;;;;5037363;28;20494;-85
2022/01/16 09:59:32;;;;;;;33.03;19.40;;;5.80;99.90;;;;;;5038089;28;20452;-86
2022/01/16 10:01:58;;;;;;;39.60;20.00;;;5.90;99.90;;;;;;5037375;28;20466;-85
2022/01/16 10:04:35;;;;;;;35.73;18.93;;;5.80;99.90;;;;;;5037854;28;20459;-85
2022/01/16 10:07:05;;;;;;;35.57;18.70;;;6.00;99.90;;;;;;5024782;28;20491;-84
2022/01/16 10:09:31;;;;;;;33.03;20.30;;;6.10;99.90;;;;;;5017824;28;20424;-86
2022/01/16 10:11:59;;;;;;;38.00;19.27;;;6.20;99.90;;;;;;5016999;28;20461;-85
2022/01/16 10:14:37;;;;;;;31.13;18.00;;;6.30;99.90;;;;;;5017524;28;20691;-84
2022/01/16 10:17:22;;;;;;;34.33;18.83;;;6.20;99.90;;;;;;5016821;28;20989;-85
2022/01/16 10:20:01;;;;;;;33.67;19.80;;;6.20;99.90;;;;;;5017237;28;20516;-87
2022/01/16 10:22:56;;;;;;;35.37;17.93;;;6.20;99.90;;;;;;5016942;28;20499;-86
2022/01/16 10:25:35;;;;;;;26.40;17.80;;;6.20;99.90;;;;;;5017133;28;20427;-87
2022/01/16 10:28:15;;;;;;;33.97;19.07;;;6.20;99.90;;;;;;5016751;28;20423;-84
2022/01/16 10:30:43;;;;;;;42.37;21.07;;;6.20;99.90;;;;;;5016968;28;20434;-88
2022/01/16 10:33:19;;;;;;;32.10;17.93;;;6.30;99.90;;;;;;5017026;28;20430;-88
2022/01/16 10:35:50;;;;;;;35.80;19.90;;;6.30;99.90;;;;;;5017269;28;20474;-87
2022/01/16 10:38:28;;;;;;;34.63;19.60;;;6.20;99.90;;;;;;5017500;28;20479;-86
2022/01/16 10:40:56;;;;;;;36.60;21.00;;;6.20;99.90;;;;;;5018726;28;20444;-85
2022/01/16 10:43:45;;;;;;;39.47;20.60;;;6.10;99.90;;;;;;5035160;28;20494;-85
2022/01/16 10:46:12;;;;;;;38.30;18.67;;;6.10;99.90;;;;;;5015932;28;21000;-87
2022/01/16 10:48:39;;;;;;;34.27;19.17;;;6.20;99.90;;;;;;5017543;28;20422;-83
2022/01/16 10:51:17;;;;;;;34.70;20.13;;;6.30;99.90;;;;;;5016992;28;20862;-86
2022/01/16 10:53:42;;;;;;;34.90;17.93;;;6.30;99.90;;;;;;5018259;28;20454;-86
2022/01/16 10:56:08;;;;;;;30.10;18.03;;;6.30;99.90;;;;;;5034466;28;20556;-86
2022/01/16 10:58:37;;;;;;;41.50;22.40;;;6.30;99.90;;;;;;5016981;28;20194;-87
2022/01/16 11:01:11;;;;;;;35.97;18.23;;;6.40;99.90;;;;;;5017329;28;20218;-85
2022/01/16 11:03:48;;;;;;;39.90;20.33;;;6.40;99.90;;;;;;5017437;28;20423;-85
2022/01/16 11:06:21;;;;;;;36.43;18.80;;;6.40;99.90;;;;;;5017283;28;20422;-86
2022/01/16 11:08:50;;;;;;;32.80;21.97;;;6.40;99.90;;;;;;5017550;28;20922;-85
2022/01/16 11:11:16;;;;;;;38.53;21.63;;;6.40;99.90;;;;;;5017178;28;20481;-85
2022/01/16 11:13:42;;;;;;;36.87;18.57;;;6.40;99.90;;;;;;5017730;28;20418;-85
2022/01/16 11:16:08;;;;;;;33.80;19.90;;;6.50;99.90;;;;;;5017674;28;20208;-87
2022/01/16 11:18:38;;;;;;;35.73;21.07;;;6.60;99.90;;;;;;5017048;28;20209;-86
2022/01/16 11:24:01;;;;;;;44.13;22.40;;;6.60;99.90;;;;;;5034362;28;20450;-86
2022/01/16 11:26:27;;;;;;;37.60;20.40;;;6.70;99.90;;;;;;5033644;28;20883;-82
2022/01/16 11:28:54;;;;;;;42.50;20.50;;;6.70;99.90;;;;;;5036586;28;20472;-86
2022/01/16 11:31:20;;;;;;;38.57;21.30;;;6.60;99.90;;;;;;5018811;28;20978;-85
2022/01/16 11:33:46;;;;;;;41.83;22.40;;;6.60;99.90;;;;;;5018754;28;20945;-87
2022/01/16 11:36:19;;;;;;;36.57;19.00;;;6.50;99.90;;;;;;5023349;28;20488;-86
2022/01/16 11:38:54;;;;;;;33.47;18.37;;;6.50;99.90;;;;;;5038235;28;20423;-85
2022/01/16 11:41:33;;;;;;;32.30;18.30;;;6.40;99.90;;;;;;5037086;28;20453;-84
2022/01/16 11:44:03;;;;;;;35.80;19.70;;;6.50;99.90;;;;;;5036724;28;20414;-86
2022/01/16 11:46:30;;;;;;;26.90;16.80;;;6.40;99.90;;;;;;5036112;28;20457;-85
2022/01/16 11:48:59;;;;;;;33.37;18.57;;;6.50;99.90;;;;;;5035173;28;20842;-82
2022/01/16 11:51:34;;;;;;;40.90;19.63;;;6.50;99.90;;;;;;5022947;28;20469;-85
2022/01/16 11:54:10;;;;;;;39.60;22.43;;;6.50;99.90;;;;;;5057242;28;20437;-84
2022/01/16 11:56:41;;;;;;;37.67;20.93;;;6.60;99.90;;;;;;5038648;28;20433;-84
2022/01/16 11:59:10;;;;;;;32.20;18.20;;;6.70;99.90;;;;;;5037282;28;20860;-85
2022/01/16 12:01:44;;;;;;;32.50;18.17;;;6.60;99.90;;;;;;5055459;28;20450;-84
2022/01/16 12:04:28;;;;;;;35.27;17.90;;;6.80;99.90;;;;;;5037669;28;20422;-85
2022/01/16 12:06:58;;;;;;;33.93;17.20;;;7.00;99.90;;;;;;5036256;28;20422;-84
2022/01/16 12:09:46;;;;;;;32.80;18.93;;;7.50;99.90;;;;;;5036809;28;20413;-86
2022/01/16 12:12:12;;;;;;;29.57;16.43;;;9.00;99.90;;;;;;5036490;28;20565;-85
2022/01/16 12:15:04;;;;;;;28.97;17.10;;;10.20;99.90;;;;;;5037203;28;20545;-87
2022/01/16 12:17:46;;;;;;;27.30;16.90;;;10.80;99.90;;;;;;5036360;28;20185;-84
2022/01/16 12:20:12;;;;;;;32.47;19.27;;;11.10;99.90;;;;;;5036037;28;20551;-87
2022/01/16 12:22:56;;;;;;;32.07;16.57;;;11.60;99.90;;;;;;5054503;28;20965;-82
2022/01/16 12:25:31;;;;;;;31.43;15.67;;;10.80;99.90;;;;;;5035060;28;20963;-86
2022/01/16 12:28:01;;;;;;;25.70;15.20;;;10.40;99.90;;;;;;5035326;28;20452;-84
2022/01/16 12:30:35;;;;;;;32.07;16.27;;;10.00;99.90;;;;;;5034736;28;20429;-86
2022/01/16 12:33:10;;;;;;;26.80;15.60;;;9.70;99.90;;;;;;5035296;28;20471;-85
2022/01/16 12:35:48;;;;;;;30.10;16.20;;;9.40;99.90;;;;;;5029428;28;20513;-86
2022/01/16 12:38:18;;;;;;;32.37;16.10;;;8.90;99.90;;;;;;5052880;28;20422;-86
2022/01/16 12:40:47;;;;;;;28.10;16.20;;;8.40;99.90;;;;;;5036749;22;20531;-86
2022/01/16 12:43:26;;;;;;;29.00;16.90;;;8.10;99.90;;;;;;5032237;28;20415;-87
2022/01/16 12:45:51;;;;;;;29.10;16.23;;;8.20;99.90;;;;;;5014402;28;20414;-87
2022/01/16 12:48:17;;;;;;;26.30;16.70;;;8.10;99.90;;;;;;5014485;28;20429;-88
2022/01/16 12:50:43;;;;;;;29.53;15.93;;;8.00;99.90;;;;;;5001872;28;20205;-87
2022/01/16 13:03:53;;;;;;;22.53;15.10;;;7.40;99.90;;;;;;4915634;29;20404;-88
2022/01/16 13:09:40;;;;;;;26.03;14.23;;;7.40;99.90;;;;;;4988483;22;20522;-79
2022/01/16 13:12:12;;;;;;;23.23;13.50;;;7.40;99.90;;;;;;5068953;28;20440;-78
2022/01/16 13:14:43;;;;;;;21.90;14.70;;;7.30;99.90;;;;;;5061034;28;20207;-79
2022/01/16 13:17:11;;;;;;;26.40;14.83;;;7.30;99.90;;;;;;5056327;28;20778;-78
2022/01/16 13:19:49;;;;;;;25.50;14.43;;;7.40;99.90;;;;;;5055564;28;20461;-79
2022/01/16 13:22:16;;;;;;;22.10;13.27;;;7.20;99.90;;;;;;5056615;28;20947;-79
2022/01/16 13:24:47;;;;;;;20.83;13.43;;;7.20;99.90;;;;;;5055049;28;20426;-79
2022/01/16 13:27:22;;;;;;;26.50;14.80;;;7.20;99.90;;;;;;5056407;28;20440;-79
2022/01/16 13:29:57;;;;;;;24.00;14.53;;;7.40;99.90;;;;;;5055768;28;20433;-79
2022/01/16 13:32:28;;;;;;;24.53;13.80;;;7.60;99.90;;;;;;5055034;28;20464;-78
2022/01/16 13:34:55;;;;;;;24.53;15.10;;;7.70;99.90;;;;;;5054409;28;20540;-79
2022/01/16 13:37:26;;;;;;;25.40;14.03;;;7.50;99.90;;;;;;5055006;28;20470;-79
2022/01/16 13:40:07;;;;;;;21.00;14.10;;;7.30;99.90;;;;;;5056719;28;20448;-79
2022/01/16 13:43:32;;;;;;;29.40;15.07;;;7.30;99.90;;;;;;5049302;28;20433;-79
2022/01/16 13:45:43;;;;;;;23.43;14.47;;;7.40;99.90;;;;;;5061510;28;20428;-79
2022/01/16 13:48:11;;;;;;;28.77;15.63;;;7.30;99.90;;;;;;5040192;28;20440;-79